Time;durP1;ratioP1;P1;durP2;ratioP2;P2;SDS_P1;SDS_P2;PMS_P1;PMS_P2;Temp;Humidity;BMP_temperature;BMP_pressure;BME280_temperature;BME280_humidity;BME280_pressure;Samples;Min_cycle;Max_cycle;Signal;HPM_P1;HPM_P2
2022/08/05 00:00:15;;;;;;;;;8.67;7.33;;;;;25.33;50.56;98462.97;4947998;28;103883;-53
2022/08/05 00:02:43;;;;;;;;;9.33;8.67;;;;;25.32;50.72;98464.91;4957522;27;104396;-54
2022/08/05 00:05:20;;;;;;;;;9.33;9.33;;;;;25.33;50.79;98454.66;4964627;28;102208;-53
2022/08/05 00:08:08;;;;;;;;;7.00;7.00;;;;;25.32;50.47;98453.84;4972603;28;105850;-54
2022/08/05 00:10:56;;;;;;;;;10.00;10.00;;;;;25.32;50.77;98458.53;4975037;28;102272;-54
2022/08/05 00:13:30;;;;;;;;;10.00;8.67;;;;;25.32;50.56;98456.59;4972690;28;105330;-54
2022/08/05 00:16:10;;;;;;;;;8.00;8.00;;;;;25.32;50.68;98458.53;4972616;28;102566;-54
2022/08/05 00:18:44;;;;;;;;;8.00;7.00;;;;;25.31;50.54;98459.66;4979653;28;102204;-54
2022/08/05 00:21:14;;;;;;;;;9.33;9.00;;;;;25.33;50.51;98460.19;4973037;28;102252;-53
2022/08/05 00:23:42;;;;;;;;;7.67;7.67;;;;;25.32;50.45;98453.84;4972574;28;104256;-54
2022/08/05 00:26:13;;;;;;;;;8.67;7.00;;;;;25.31;50.72;98451.34;4965276;28;102185;-54
2022/08/05 00:28:42;;;;;;;;;9.33;9.00;;;;;25.32;50.40;98442.75;4971228;28;102303;-54
2022/08/05 00:31:11;;;;;;;;;8.67;7.33;;;;;25.32;50.52;98444.69;4977117;28;102332;-54
2022/08/05 00:33:38;;;;;;;;;8.33;8.00;;;;;25.30;50.50;98445.03;4959551;28;109205;-54
2022/08/05 00:36:26;;;;;;;;;8.00;8.00;;;;;25.29;50.68;98446.13;4972498;28;102149;-54
2022/08/05 00:39:13;;;;;;;;;8.33;7.67;;;;;25.27;50.57;98450.31;4976334;28;102610;-53
2022/08/05 00:41:44;;;;;;;;;9.33;8.00;;;;;25.25;50.66;98447.88;4966420;28;103400;-54
2022/08/05 00:44:21;;;;;;;;;9.33;9.33;;;;;25.25;50.72;98447.03;4961613;28;108841;-54
2022/08/05 00:46:56;;;;;;;;;8.67;7.00;;;;;25.24;50.71;98437.91;4973864;28;102321;-54
2022/08/05 00:49:31;;;;;;;;;10.67;9.00;;;;;25.24;50.55;98440.69;4968150;28;102207;-54
2022/08/05 00:52:17;;;;;;;;;9.00;9.00;;;;;25.23;50.94;98440.97;4973453;28;102626;-54
2022/08/05 00:54:54;;;;;;;;;6.00;5.33;;;;;25.22;50.69;98444.84;4971180;28;104078;-54
2022/08/05 00:57:22;;;;;;;;;11.00;9.00;;;;;25.21;50.67;98429.41;4973088;28;102487;-54
2022/08/05 01:00:05;;;;;;;;;7.33;7.33;;;;;25.23;50.85;98438.19;4972682;28;102251;-54
2022/08/05 01:02:36;;;;;;;;;9.67;9.00;;;;;25.23;50.81;98438.19;4959757;28;102225;-54
2022/08/05 01:05:04;;;;;;;;;11.00;10.00;;;;;25.24;50.62;98426.00;4962963;28;104073;-54
2022/08/05 01:07:36;;;;;;;;;10.33;8.33;;;;;25.23;50.67;98432.66;4969375;28;102177;-54
2022/08/05 01:10:28;;;;;;;;;9.00;8.33;;;;;25.24;50.63;98428.78;4973325;28;102293;-54
2022/08/05 01:12:57;;;;;;;;;8.67;8.00;;;;;25.21;50.80;98418.31;4965662;28;103326;-54
2022/08/05 01:15:41;;;;;;;;;7.00;7.00;;;;;25.19;51.03;98420.56;4964342;27;110019;-54
2022/08/05 01:18:15;;;;;;;;;10.67;9.67;;;;;25.17;50.88;98422.81;4962669;28;103835;-54
2022/08/05 01:21:11;;;;;;;;;7.67;7.67;;;;;25.15;51.00;98414.81;4960483;28;103085;-54
2022/08/05 01:23:54;;;;;;;;;7.67;7.67;;;;;25.14;51.04;98415.09;4954296;28;102386;-54
2022/08/05 01:26:59;;;;;;;;;7.67;7.67;;;;;25.14;50.96;98415.91;4961658;28;103063;-54
2022/08/05 01:29:45;;;;;;;;;9.00;9.00;;;;;25.14;50.84;98421.44;4964566;27;102156;-54
2022/08/05 01:32:15;;;;;;;;;9.00;8.33;;;;;25.14;50.92;98417.84;4966063;27;102918;-54
2022/08/05 01:34:57;;;;;;;;;8.00;8.00;;;;;25.13;51.00;98411.50;4970184;28;102827;-53
2022/08/05 01:37:34;;;;;;;;;9.33;9.00;;;;;25.13;50.94;98410.69;5001070;27;103860;-54
2022/08/05 01:40:02;;;;;;;;;7.33;7.33;;;;;25.11;50.86;98405.47;4973154;27;102353;-54
2022/08/05 01:42:30;;;;;;;;;8.00;8.00;;;;;25.10;50.90;98400.22;4969999;27;103838;-54
2022/08/05 01:44:58;;;;;;;;;7.33;7.33;;;;;25.10;51.10;98395.50;4966995;27;103892;-54
2022/08/05 01:47:28;;;;;;;;;8.67;8.67;;;;;25.09;50.94;98404.09;4997368;27;104071;-54
2022/08/05 01:50:16;;;;;;;;;9.00;9.00;;;;;25.08;51.23;98408.00;4967324;28;102465;-54
2022/08/05 01:52:45;;;;;;;;;8.00;8.00;;;;;25.08;51.27;98399.72;4992286;28;102404;-54
2022/08/05 01:55:17;;;;;;;;;8.67;8.67;;;;;25.06;51.05;98399.19;4966132;28;102646;-54
2022/08/05 01:57:45;;;;;;;;;9.33;9.00;;;;;25.07;51.15;98400.81;4989230;27;104088;-54
2022/08/05 02:00:32;;;;;;;;;8.33;8.33;;;;;25.06;51.24;98404.72;4976083;28;102375;-54
2022/08/05 02:03:06;;;;;;;;;7.00;7.00;;;;;25.04;51.24;98396.69;4974826;28;102735;-54
2022/08/05 02:05:51;;;;;;;;;9.00;8.33;;;;;25.06;51.21;98393.63;4973926;28;102609;-54
2022/08/05 02:08:23;;;;;;;;;8.00;8.00;;;;;25.06;51.25;98393.63;4970588;28;104053;-54
2022/08/05 02:11:08;;;;;;;;;9.67;9.00;;;;;25.06;51.29;98391.69;4974918;28;103587;-54
2022/08/05 02:13:44;;;;;;;;;11.33;9.67;;;;;25.05;51.21;98389.22;4971880;27;102653;-54
2022/08/05 02:16:41;;;;;;;;;8.33;8.33;;;;;25.04;51.31;98382.03;4974375;28;103153;-54
2022/08/05 02:19:27;;;;;;;;;8.67;8.67;;;;;25.04;51.17;98384.81;4979330;28;108910;-54
2022/08/05 02:22:19;;;;;;;;;10.00;9.00;;;;;25.02;51.15;98379.59;4974427;27;102397;-54
2022/08/05 02:24:57;;;;;;;;;10.33;9.00;;;;;25.01;51.18;98379.88;4961982;28;102713;-54
2022/08/05 02:27:25;;;;;;;;;8.00;7.33;;;;;25.01;51.05;98382.66;4997439;27;102310;-54
2022/08/05 02:30:13;;;;;;;;;9.33;8.33;;;;;24.99;51.11;98382.16;4968700;28;109981;-54
2022/08/05 02:32:41;;;;;;;;;10.00;9.00;;;;;24.98;51.11;98380.50;4991509;28;102152;-54
2022/08/05 02:35:13;;;;;;;;;9.67;9.00;;;;;24.97;51.17;98376.06;4981663;28;102164;-54
2022/08/05 02:37:44;;;;;;;;;8.33;8.33;;;;;24.98;51.14;98377.72;4968957;28;102508;-52
2022/08/05 02:40:18;;;;;;;;;6.33;6.33;;;;;24.98;51.06;98375.78;4973245;28;104087;-54
2022/08/05 02:42:46;;;;;;;;;9.67;9.33;;;;;24.98;51.22;98372.19;4973752;28;102578;-54
2022/08/05 02:45:20;;;;;;;;;10.00;10.00;;;;;24.97;51.23;98376.06;4972913;28;102542;-53
2022/08/05 02:47:51;;;;;;;;;8.00;8.00;;;;;24.95;51.58;98367.28;4966503;28;101960;-55
2022/08/05 02:50:40;;;;;;;;;9.00;8.33;;;;;24.96;51.62;98374.41;4971881;28;105549;-54
2022/08/05 02:53:10;;;;;;;;;8.67;8.67;;;;;24.94;51.46;98373.91;4968651;28;102371;-54
2022/08/05 02:55:46;;;;;;;;;9.33;8.67;;;;;24.94;51.23;98379.44;4972717;28;102171;-53
2022/08/05 02:58:25;;;;;;;;;9.33;9.33;;;;;24.94;51.27;98371.16;4971300;27;102147;-54
2022/08/05 03:00:55;;;;;;;;;8.00;7.33;;;;;24.92;51.41;98368.66;4973787;28;104111;-54
2022/08/05 03:03:23;;;;;;;;;8.00;8.00;;;;;24.92;51.58;98382.50;4965171;28;102407;-54
2022/08/05 03:05:50;;;;;;;;;9.33;8.33;;;;;24.89;51.47;98372.03;4970963;27;103640;-54
2022/08/05 03:08:38;;;;;;;;;8.33;8.33;;;;;24.91;51.37;98380.03;4979168;28;102247;-54
2022/08/05 03:11:27;;;;;;;;;8.67;8.67;;;;;24.91;51.32;98368.97;4976879;27;104088;-54
2022/08/05 03:14:14;;;;;;;;;8.00;8.00;;;;;24.90;51.54;98372.88;4974432;28;105812;-53
2022/08/05 03:16:42;;;;;;;;;9.00;8.00;;;;;24.87;51.73;98375.09;4979771;28;102561;-54
2022/08/05 03:19:09;;;;;;;;;7.67;7.67;;;;;24.87;51.33;98366.81;4977044;28;102817;-54
2022/08/05 03:21:43;;;;;;;;;9.00;8.67;;;;;24.85;51.66;98369.03;4974715;28;108661;-54
2022/08/05 03:24:17;;;;;;;;;5.33;5.33;;;;;24.85;51.53;98366.28;4962393;28;102580;-54
2022/08/05 03:26:58;;;;;;;;;7.67;7.67;;;;;24.84;51.58;98364.63;4971515;28;102224;-54
2022/08/05 03:29:25;;;;;;;;;10.67;9.67;;;;;24.85;51.62;98365.44;4976940;27;102549;-54
2022/08/05 03:32:12;;;;;;;;;8.33;7.33;;;;;24.83;51.58;98362.97;4971295;28;110075;-54
2022/08/05 03:34:43;;;;;;;;;8.00;8.00;;;;;24.83;51.51;98368.50;4970906;28;102176;-54
2022/08/05 03:37:17;;;;;;;;;8.00;8.00;;;;;24.83;51.71;98368.50;4988502;28;104447;-54
2022/08/05 03:39:55;;;;;;;;;8.33;7.00;;;;;24.82;51.75;98363.25;4980944;27;102654;-53
2022/08/05 03:42:28;;;;;;;;;8.00;7.33;;;;;24.82;51.44;98360.50;4965755;28;109310;-54
2022/08/05 03:44:59;;;;;;;;;8.00;7.33;;;;;24.83;51.46;98368.50;4973697;28;103980;-54
2022/08/05 03:47:46;;;;;;;;;9.00;9.00;;;;;24.84;51.63;98364.63;4971174;28;102167;-53
2022/08/05 03:50:14;;;;;;;;;8.00;7.67;;;;;24.83;51.56;98356.59;4979451;28;102766;-53
2022/08/05 03:52:52;;;;;;;;;7.00;7.00;;;;;24.83;51.55;98359.38;4972562;27;104343;-54
2022/08/05 03:56:02;;;;;;;;;9.33;8.33;;;;;24.81;51.56;98362.44;4965587;28;102272;-54
2022/08/05 03:58:38;;;;;;;;;8.33;8.00;;;;;24.78;51.54;98360.28;4965746;28;103415;-54
2022/08/05 04:01:07;;;;;;;;;7.00;6.67;;;;;24.78;51.53;98360.28;4975256;28;103707;-54
2022/08/05 04:03:38;;;;;;;;;10.67;9.33;;;;;24.80;51.55;98368.28;4963597;28;104241;-54
2022/08/05 04:06:25;;;;;;;;;5.67;5.33;;;;;24.79;51.68;98367.44;4973059;28;102178;-54
2022/08/05 04:08:53;;;;;;;;;7.33;7.33;;;;;24.80;51.49;98371.03;4974621;28;103507;-54
2022/08/05 04:11:20;;;;;;;;;7.00;7.00;;;;;24.78;51.54;98368.56;4959574;28;102351;-54
2022/08/05 04:13:48;;;;;;;;;9.00;8.00;;;;;24.79;51.66;98372.16;4972075;28;104359;-54
2022/08/05 04:16:19;;;;;;;;;7.00;7.00;;;;;24.79;51.55;98372.97;4968520;28;102495;-54
2022/08/05 04:18:58;;;;;;;;;6.00;6.00;;;;;24.79;51.64;98372.97;4969593;28;102273;-54
2022/08/05 04:21:26;;;;;;;;;8.00;8.00;;;;;24.78;51.76;98374.09;4966436;27;102253;-54
2022/08/05 04:24:13;;;;;;;;;6.67;6.33;;;;;24.77;51.71;98375.22;4977803;28;109959;-54
2022/08/05 04:26:48;;;;;;;;;8.00;8.00;;;;;24.78;51.54;98378.81;4972567;28;103389;-54
2022/08/05 04:29:15;;;;;;;;;7.00;7.00;;;;;24.78;51.71;98376.88;4964733;27;103357;-56
2022/08/05 04:31:42;;;;;;;;;8.00;6.00;;;;;24.79;51.64;98372.97;4973717;28;102452;-54
2022/08/05 04:34:13;;;;;;;;;8.67;8.67;;;;;24.79;51.70;98367.44;4968086;28;109135;-54
2022/08/05 04:36:58;;;;;;;;;8.67;8.00;;;;;24.80;51.54;98363.56;4973280;28;102188;-54
2022/08/05 04:39:26;;;;;;;;;7.67;6.67;;;;;24.78;51.43;98365.81;4971286;27;102103;-54
2022/08/05 04:41:53;;;;;;;;;9.00;9.00;;;;;24.77;51.62;98366.09;4978846;28;102066;-54
2022/08/05 04:44:21;;;;;;;;;5.67;5.33;;;;;24.78;51.86;98365.81;4970970;28;104187;-54
2022/08/05 04:46:57;;;;;;;;;9.33;8.67;;;;;24.80;51.71;98365.50;4968211;28;102224;-54
2022/08/05 04:49:25;;;;;;;;;6.33;6.33;;;;;24.81;51.63;98362.44;4970775;28;102690;-54
2022/08/05 04:52:12;;;;;;;;;7.00;7.00;;;;;24.80;51.68;98363.56;4969775;28;103100;-54
2022/08/05 04:54:41;;;;;;;;;7.00;7.00;;;;;24.80;51.67;98360.81;4977971;28;108580;-54
2022/08/05 04:57:08;;;;;;;;;7.00;7.00;;;;;24.80;51.65;98358.03;4974355;27;102454;-54
2022/08/05 04:59:35;;;;;;;;;5.67;5.67;;;;;24.81;51.58;98364.41;4985238;28;102340;-56
2022/08/05 05:02:06;;;;;;;;;6.33;5.67;;;;;24.81;51.49;98359.66;4978742;28;102530;-56
2022/08/05 05:04:53;;;;;;;;;6.67;6.67;;;;;24.82;51.52;98366.03;4960304;28;109847;-56
2022/08/05 05:07:29;;;;;;;;;9.00;9.00;;;;;24.84;51.35;98363.78;4970908;28;102104;-56
2022/08/05 05:09:58;;;;;;;;;8.00;7.00;;;;;24.84;51.30;98358.25;4979547;28;102286;-56
2022/08/05 05:12:28;;;;;;;;;7.00;6.33;;;;;24.83;51.54;98362.13;4973115;28;102286;-55
2022/08/05 05:14:55;;;;;;;;;7.00;7.00;;;;;24.82;51.55;98358.53;4970671;28;104205;-56
2022/08/05 05:17:22;;;;;;;;;8.00;6.67;;;;;24.83;51.57;98360.19;4972992;28;102399;-56
2022/08/05 05:20:10;;;;;;;;;8.00;8.00;;;;;24.83;51.50;98360.19;4965167;28;104366;-54
2022/08/05 05:22:37;;;;;;;;;9.00;7.67;;;;;24.83;51.55;98360.19;4977087;28;102142;-54
2022/08/05 05:25:07;;;;;;;;;9.00;8.00;;;;;24.84;51.46;98353.56;4971285;28;104083;-54
2022/08/05 05:27:43;;;;;;;;;7.67;7.00;;;;;24.84;51.26;98359.09;4968900;28;102068;-54
2022/08/05 05:30:19;;;;;;;;;7.67;7.00;;;;;24.86;51.45;98362.38;4968771;28;105239;-54
2022/08/05 05:32:56;;;;;;;;;7.00;6.00;;;;;24.88;51.18;98364.88;4983857;28;102215;-54
2022/08/05 05:35:28;;;;;;;;;6.67;6.67;;;;;24.91;51.41;98367.03;4992057;28;104029;-54
2022/08/05 05:38:01;;;;;;;;;6.00;6.00;;;;;24.92;51.08;98371.44;4967763;27;102004;-54
2022/08/05 05:40:31;;;;;;;;;7.00;7.00;;;;;24.92;50.88;98362.31;4968974;28;102937;-54
2022/08/05 05:43:00;;;;;;;;;8.00;7.33;;;;;24.93;51.26;98367.56;4973687;28;103200;-54
2022/08/05 05:45:28;;;;;;;;;7.33;7.33;;;;;24.94;51.35;98371.16;4979191;28;104071;-54
2022/08/05 05:47:57;;;;;;;;;5.67;4.67;;;;;24.93;51.21;98366.72;4974939;28;102624;-54
2022/08/05 05:50:34;;;;;;;;;7.00;7.00;;;;;24.92;51.23;98368.66;4966683;28;102558;-54
2022/08/05 05:53:10;;;;;;;;;6.00;6.00;;;;;24.93;51.12;98369.50;4965875;28;102164;-54
2022/08/05 05:55:49;;;;;;;;;5.67;5.67;;;;;24.92;51.13;98368.66;4959998;28;109031;-54
2022/08/05 05:58:27;;;;;;;;;7.33;6.67;;;;;24.95;51.33;98370.03;4972861;28;102357;-54
2022/08/05 06:01:00;;;;;;;;;7.00;6.67;;;;;24.93;51.15;98363.97;4963529;27;102092;-54
2022/08/05 06:03:42;;;;;;;;;5.33;5.33;;;;;24.93;51.26;98364.78;4982124;27;102565;-54
2022/08/05 06:06:28;;;;;;;;;6.33;6.33;;;;;24.95;51.42;98358.97;4977465;28;108826;-54
2022/08/05 06:09:00;;;;;;;;;7.00;7.00;;;;;24.97;51.07;98362.25;4967403;28;102504;-54
2022/08/05 06:11:30;;;;;;;;;8.00;7.00;;;;;24.97;50.99;98360.31;4974200;28;102440;-54
2022/08/05 06:13:57;;;;;;;;;5.67;5.00;;;;;24.98;51.18;98363.88;4975148;28;102699;-54
2022/08/05 06:16:26;;;;;;;;;5.33;5.33;;;;;24.99;51.06;98368.31;4977810;28;104155;-54
2022/08/05 06:19:03;;;;;;;;;6.00;5.33;;;;;25.00;51.05;98372.69;4970670;28;102388;-54
2022/08/05 06:21:33;;;;;;;;;6.67;6.00;;;;;25.00;51.10;98362.47;4974899;27;103347;-54
2022/08/05 06:24:07;;;;;;;;;8.00;7.00;;;;;25.00;51.09;98369.94;4975579;28;102451;-54
2022/08/05 06:26:41;;;;;;;;;5.00;5.00;;;;;25.00;50.93;98358.88;4975251;27;104071;-54
2022/08/05 06:29:19;;;;;;;;;6.33;5.67;;;;;25.01;50.85;98366.06;4974755;28;102156;-54
2022/08/05 06:32:07;;;;;;;;;5.67;5.67;;;;;25.01;50.89;98368.81;4987266;28;102977;-54
2022/08/05 06:34:53;;;;;;;;;7.00;6.67;;;;;25.00;50.90;98353.31;4980785;28;102142;-53
2022/08/05 06:37:23;;;;;;;;;6.67;6.67;;;;;25.00;50.93;98358.88;4961541;28;104074;-54
2022/08/05 06:40:11;;;;;;;;;7.00;6.00;;;;;25.01;50.86;98357.75;4976188;28;102632;-54
2022/08/05 06:42:39;;;;;;;;;6.00;5.33;;;;;24.99;51.10;98351.72;4972014;28;102448;-55
2022/08/05 06:45:07;;;;;;;;;6.00;5.00;;;;;25.01;51.16;98353.03;4977497;27;103091;-54
2022/08/05 06:47:35;;;;;;;;;6.00;6.00;;;;;25.02;50.96;98359.41;4970419;28;104231;-54
2022/08/05 06:50:23;;;;;;;;;5.33;5.33;;;;;25.04;51.21;98357.97;4979710;28;102350;-54
2022/08/05 06:52:50;;;;;;;;;6.00;6.00;;;;;25.03;50.87;98358.28;4966247;28;102499;-54
2022/08/05 06:55:37;;;;;;;;;5.00;5.00;;;;;25.03;51.13;98358.28;4979498;27;103710;-54
2022/08/05 06:58:08;;;;;;;;;6.33;6.00;;;;;25.03;50.99;98367.41;4981692;28;104076;-54
2022/08/05 07:01:01;;;;;;;;;5.33;5.33;;;;;25.03;50.99;98361.88;4968002;28;102331;-54
2022/08/05 07:03:29;;;;;;;;;6.00;5.00;;;;;25.03;51.08;98355.53;4972002;27;103612;-54
2022/08/05 07:06:00;;;;;;;;;3.33;3.00;;;;;25.03;51.06;98361.06;4970403;28;102469;-54
2022/08/05 07:08:43;;;;;;;;;4.67;4.33;;;;;25.03;50.91;98358.28;4967212;28;112101;-54
2022/08/05 07:11:17;;;;;;;;;6.00;5.00;;;;;25.02;51.13;98354.69;4961094;27;102353;-54
2022/08/05 07:16:49;;;;;;;;;6.00;6.00;;;;;25.04;51.01;98352.44;4970386;28;103722;-54
2022/08/05 07:19:36;;;;;;;;;7.00;6.00;;;;;25.04;50.97;98352.44;4974853;28;109949;-54
2022/08/05 07:22:23;;;;;;;;;7.33;7.33;;;;;25.04;51.05;98343.31;4984891;28;102001;-54
2022/08/05 07:24:56;;;;;;;;;6.00;6.00;;;;;25.05;51.07;98347.72;4974819;27;102291;-54
2022/08/05 07:27:23;;;;;;;;;5.67;5.67;;;;;25.06;51.08;98350.19;4982204;27;102199;-54
2022/08/05 07:30:10;;;;;;;;;6.00;6.00;;;;;25.07;50.88;98359.31;4976879;28;109918;-54
2022/08/05 07:32:53;;;;;;;;;6.33;6.33;;;;;25.06;50.84;98364.03;4963117;28;102157;-54
2022/08/05 07:35:23;;;;;;;;;5.67;5.00;;;;;25.07;50.88;98351.84;4971328;28;102364;-54
2022/08/05 07:38:10;;;;;;;;;5.67;5.33;;;;;25.08;50.90;98352.66;4973657;28;102193;-54
2022/08/05 07:40:57;;;;;;;;;5.67;5.33;;;;;25.07;50.89;98349.06;4983904;28;109751;-54
2022/08/05 07:43:42;;;;;;;;;5.33;5.33;;;;;25.09;50.87;98349.59;4974038;28;102280;-54
2022/08/05 07:46:10;;;;;;;;;4.67;4.67;;;;;25.08;51.04;98359.00;4971178;28;102247;-54
2022/08/05 07:48:52;;;;;;;;;6.33;6.00;;;;;25.08;50.78;98347.94;4965445;28;102226;-54
2022/08/05 07:51:34;;;;;;;;;9.00;6.00;;;;;25.09;50.95;98349.59;4980755;28;104150;-54
2022/08/05 07:54:20;;;;;;;;;5.33;5.33;;;;;25.10;50.90;98344.88;4961729;28;102555;-54
2022/08/05 07:56:53;;;;;;;;;5.00;5.00;;;;;25.12;50.83;98349.00;4971866;28;102157;-54
2022/08/05 07:59:39;;;;;;;;;4.00;4.00;;;;;25.12;50.85;98348.19;4981295;28;102694;-54
2022/08/05 08:02:10;;;;;;;;;6.00;6.00;;;;;25.12;50.92;98350.94;4961619;27;104150;-54
2022/08/05 08:04:45;;;;;;;;;4.00;3.00;;;;;25.11;50.85;98347.34;4968448;28;102324;-53
2022/08/05 08:07:14;;;;;;;;;4.33;4.33;;;;;25.14;50.75;98351.44;4965442;27;102549;-54
2022/08/05 08:09:43;;;;;;;;;7.00;7.00;;;;;25.15;50.74;98342.03;4975941;28;102634;-54
2022/08/05 08:12:14;;;;;;;;;6.00;5.00;;;;;25.13;50.61;98345.09;4972607;28;110237;-54
2022/08/05 08:15:01;;;;;;;;;5.33;5.00;;;;;25.14;50.82;98343.97;4966862;27;102339;-54
2022/08/05 08:17:31;;;;;;;;;5.67;5.00;;;;;25.16;50.77;98354.75;4967785;27;104454;-54
2022/08/05 08:19:58;;;;;;;;;7.00;6.00;;;;;25.17;50.59;98353.63;4973202;28;102706;-54
2022/08/05 08:22:55;;;;;;;;;5.00;5.00;;;;;25.17;50.70;98359.16;4965882;28;110543;-53
2022/08/05 08:25:22;;;;;;;;;5.33;5.33;;;;;25.18;50.66;98353.31;4968581;28;102402;-53
2022/08/05 08:28:09;;;;;;;;;5.00;5.00;;;;;25.17;50.88;98356.41;4971281;28;103156;-53
2022/08/05 08:30:45;;;;;;;;;6.33;5.33;;;;;25.16;50.76;98355.56;4971641;27;102310;-53
2022/08/05 08:33:15;;;;;;;;;6.67;5.67;;;;;25.17;50.76;98356.41;4987297;28;109060;-52
2022/08/05 08:35:44;;;;;;;;;7.67;7.00;;;;;25.17;50.78;98351.66;4970516;27;103245;-54
2022/08/05 08:38:29;;;;;;;;;6.33;6.33;;;;;25.18;50.74;98360.78;4969300;27;102496;-54
2022/08/05 08:41:07;;;;;;;;;7.00;6.00;;;;;25.20;50.75;98348.31;4963803;28;102560;-54
2022/08/05 08:43:35;;;;;;;;;5.00;5.00;;;;;25.19;50.94;98354.13;4971663;28;104124;-54
2022/08/05 08:46:22;;;;;;;;;4.00;4.00;;;;;25.19;50.92;98349.44;4967581;28;102103;-54
2022/08/05 08:48:51;;;;;;;;;5.00;5.00;;;;;25.20;50.68;98351.06;4969867;28;102399;-54
2022/08/05 08:51:38;;;;;;;;;5.33;5.33;;;;;25.22;50.77;98357.13;4977245;28;103382;-53
2022/08/05 08:54:25;;;;;;;;;5.00;5.00;;;;;25.24;50.67;98356.81;4966762;28;110098;-54
2022/08/05 08:56:53;;;;;;;;;5.00;5.00;;;;;25.25;50.72;98358.47;4972987;28;102860;-54
2022/08/05 08:59:22;;;;;;;;;5.00;5.00;;;;;25.26;50.54;98357.34;4965712;28;102416;-54
2022/08/05 09:02:00;;;;;;;;;5.67;4.67;;;;;25.26;50.47;98355.38;4961887;28;102561;-54
2022/08/05 09:04:27;;;;;;;;;5.00;5.00;;;;;25.27;50.53;98357.03;4952006;28;104397;-54
2022/08/05 09:06:56;;;;;;;;;5.00;5.00;;;;;25.28;50.54;98352.31;4964834;28;102644;-53
2022/08/05 09:09:24;;;;;;;;;6.00;5.00;;;;;25.27;50.72;98354.25;4961820;28;102520;-54
2022/08/05 09:12:07;;;;;;;;;5.00;5.00;;;;;25.29;50.46;98353.97;4992644;28;102408;-54
2022/08/05 09:14:53;;;;;;;;;5.33;4.67;;;;;25.29;50.61;98354.81;4964909;28;108277;-53
2022/08/05 09:17:31;;;;;;;;;5.00;5.00;;;;;25.30;50.41;98347.31;4965111;28;102210;-54
2022/08/05 09:20:07;;;;;;;;;6.00;6.00;;;;;25.31;50.41;98351.72;4973294;28;102927;-54
2022/08/05 09:23:04;;;;;;;;;5.33;5.33;;;;;25.32;50.54;98354.19;4965161;27;102329;-54
2022/08/05 09:25:35;;;;;;;;;6.00;5.33;;;;;25.32;50.54;98337.56;4968037;28;108806;-54
2022/08/05 09:28:23;;;;;;;;;5.00;5.00;;;;;25.35;50.47;98349.19;4973369;28;102393;-53
2022/08/05 09:31:05;;;;;;;;;4.00;4.00;;;;;25.35;50.44;98343.66;4976756;28;102164;-53
2022/08/05 09:33:54;;;;;;;;;5.67;5.67;;;;;25.36;50.51;98339.72;4971956;28;102152;-54
2022/08/05 09:36:22;;;;;;;;;4.00;4.00;;;;;25.37;50.39;98333.91;4971525;28;104139;-53
2022/08/05 09:39:05;;;;;;;;;6.00;5.00;;;;;25.37;50.33;98333.06;4984269;28;102167;-53
2022/08/05 09:42:03;;;;;;;;;5.00;5.00;;;;;25.38;50.30;98332.78;4968977;28;102201;-54
2022/08/05 09:44:41;;;;;;;;;6.67;5.00;;;;;25.38;50.41;98323.66;4955925;28;102535;-54
2022/08/05 09:47:13;;;;;;;;;4.33;4.33;;;;;25.38;50.37;98330.00;4966423;28;104047;-54
2022/08/05 09:49:55;;;;;;;;;5.00;5.00;;;;;25.39;50.26;98328.06;4959612;28;102190;-53
2022/08/05 09:52:33;;;;;;;;;5.00;5.00;;;;;25.39;50.22;98328.91;4966388;28;102370;-53
2022/08/05 09:55:05;;;;;;;;;5.00;5.00;;;;;25.40;50.38;98321.41;4972147;28;103076;-54
2022/08/05 09:57:52;;;;;;;;;4.67;4.33;;;;;25.40;50.29;98316.66;4975335;27;109996;-54
2022/08/05 10:00:25;;;;;;;;;4.33;4.33;;;;;25.41;50.31;98312.78;4971662;28;105459;-53
2022/08/05 10:02:55;;;;;;;;;6.00;5.00;;;;;25.42;50.32;98319.16;4974570;27;102586;-54
2022/08/05 10:05:26;;;;;;;;;4.00;4.00;;;;;25.43;50.32;98320.78;4968420;28;102077;-54
2022/08/05 10:07:53;;;;;;;;;6.00;5.00;;;;;25.44;50.21;98317.69;4981604;28;103876;-54
2022/08/05 10:10:43;;;;;;;;;4.67;4.67;;;;;25.46;50.02;98314.63;4952967;27;102294;-54
2022/08/05 10:13:37;;;;;;;;;6.00;5.33;;;;;25.47;50.18;98311.56;4956071;28;102165;-53
2022/08/05 10:16:33;;;;;;;;;4.00;3.33;;;;;25.47;50.12;98306.03;4954018;28;102160;-54
2022/08/05 10:19:18;;;;;;;;;5.00;5.00;;;;;25.48;50.04;98301.31;4953060;28;108284;-53
2022/08/05 10:21:57;;;;;;;;;4.67;4.00;;;;;25.48;50.10;98307.69;4951323;28;102312;-53
2022/08/05 10:24:25;;;;;;;;;4.00;4.00;;;;;25.49;50.27;98303.78;4953989;28;102759;-54
2022/08/05 10:26:55;;;;;;;;;4.00;4.00;;;;;25.49;50.24;98302.94;4954690;28;102360;-54
2022/08/05 10:29:28;;;;;;;;;5.00;5.00;;;;;25.50;50.01;98299.06;4947493;28;104152;-53
2022/08/05 10:32:15;;;;;;;;;4.33;4.33;;;;;25.50;50.14;98299.88;4965159;28;102510;-54
2022/08/05 10:35:02;;;;;;;;;3.67;3.67;;;;;25.50;50.10;98294.34;4952884;28;102199;-54
2022/08/05 10:37:30;;;;;;;;;3.00;3.00;;;;;25.52;50.14;98294.88;4958781;28;102341;-53
2022/08/05 10:40:18;;;;;;;;;4.67;4.67;;;;;25.53;50.16;98292.94;4940898;28;104353;-53
2022/08/05 10:42:50;;;;;;;;;4.33;4.33;;;;;25.53;49.87;98293.72;4942158;28;102702;-54
2022/08/05 10:45:24;;;;;;;;;3.00;3.00;;;;;25.56;49.72;98292.34;4944105;28;102341;-53
2022/08/05 10:48:30;;;;;;;;;3.00;3.00;;;;;25.57;50.01;98285.69;4938465;28;103320;-54
2022/08/05 10:51:18;;;;;;;;;5.00;5.00;;;;;25.56;50.12;98287.63;4947423;28;110224;-54
2022/08/05 10:53:50;;;;;;;;;13.33;12.00;;;;;25.59;50.22;98280.63;4966496;27;103523;-54
2022/08/05 10:56:30;;;;;;;;;18.33;16.67;;;;;25.59;50.06;98286.19;4957931;28;102548;-53
2022/08/05 10:59:04;;;;;;;;;18.33;17.67;;;;;25.60;49.93;98285.88;4951871;28;104339;-54
2022/08/05 11:02:11;;;;;;;;;14.33;14.00;;;;;25.62;50.08;98285.59;4944675;28;110655;-54
2022/08/05 11:04:46;;;;;;;;;14.67;13.33;;;;;25.61;49.83;98282.00;4942395;28;102278;-54
2022/08/05 11:07:16;;;;;;;;;14.67;14.33;;;;;25.64;49.92;98286.09;4953417;28;102349;-54
2022/08/05 11:10:01;;;;;;;;;18.00;17.00;;;;;25.64;49.95;98286.91;4950042;28;102658;-54
2022/08/05 11:12:43;;;;;;;;;20.67;18.00;;;;;25.64;49.79;98281.38;4949736;27;104179;-53
2022/08/05 11:15:19;;;;;;;;;21.33;19.33;;;;;25.65;49.85;98283.03;4944974;28;104159;-53
2022/08/05 11:17:54;;;;;;;;;23.33;20.67;;;;;25.67;49.79;98280.75;4961926;28;102043;-53
2022/08/05 11:20:50;;;;;;;;;26.00;23.33;;;;;25.67;49.80;98275.22;4949261;28;103400;-54
2022/08/05 11:23:27;;;;;;;;;25.00;24.67;;;;;25.69;49.79;98278.50;4957979;28;108979;-53
2022/08/05 11:26:21;;;;;;;;;32.00;27.33;;;;;25.70;49.94;98279.31;4950000;28;103676;-54
2022/08/05 11:28:57;;;;;;;;;28.67;26.00;;;;;25.70;49.82;98277.38;4956856;28;102375;-54
2022/08/05 11:31:38;;;;;;;;;32.67;29.33;;;;;25.72;49.65;98265.97;4951614;28;102152;-54
2022/08/05 11:34:40;;;;;;;;;32.75;30.25;;;;;25.73;49.78;98274.00;4966154;28;108987;-54
2022/08/05 11:37:53;;;;;;;;;36.00;33.00;;;;;25.74;49.74;98267.34;4965036;28;102200;-53
2022/08/05 11:41:02;;;;;;;;;38.50;33.50;;;;;25.75;49.68;98268.97;4944285;28;102141;-54
2022/08/05 11:43:57;;;;;;;;;41.25;34.75;;;;;25.76;49.66;98275.31;4962516;28;103338;-54
2022/08/05 11:46:39;;;;;;;;;42.00;34.50;;;;;25.78;49.67;98273.06;4960931;28;103839;-54
2022/08/05 11:49:26;;;;;;;;;39.50;34.25;;;;;25.79;49.66;98279.44;4946963;28;104475;-54
2022/08/05 11:51:53;;;;;;;;;38.00;33.25;;;;;25.79;49.68;98274.72;4959550;28;102352;-54
2022/08/05 11:54:28;;;;;;;;;43.75;34.00;;;;;25.81;49.62;98266.06;4957824;28;102192;-54
2022/08/05 11:57:01;;;;;;;;;40.00;34.50;;;;;25.81;49.66;98277.16;4954246;28;104241;-54
2022/08/05 11:59:48;;;;;;;;;30.50;29.50;;;;;25.83;49.66;98274.91;4957454;28;103917;-53
2022/08/05 12:02:16;;;;;;;;;40.25;34.00;;;;;25.81;49.69;98268.84;4959685;28;102989;-54
2022/08/05 12:04:58;;;;;;;;;37.75;32.00;;;;;25.82;49.82;98273.25;4955650;28;103243;-54
2022/08/05 12:07:26;;;;;;;;;38.75;34.50;;;;;25.85;49.57;98265.16;4968542;28;104054;-54
2022/08/05 12:10:13;;;;;;;;;40.75;35.00;;;;;25.89;49.47;98271.75;4943608;28;102640;-53